sensor_id;sensor_type;location;lat;lon;timestamp;P1;durP1;ratioP1;P2;durP2;ratioP2
41059;SDS011;26811;53.160;8.202;2023-09-19T00:03:28;7.07;;;2.63;;
41059;SDS011;26811;53.160;8.202;2023-09-19T00:08:31;7.15;;;3.05;;
41059;SDS011;26811;53.160;8.202;2023-09-19T00:13:33;10.00;;;3.00;;
41059;SDS011;26811;53.160;8.202;2023-09-19T00:18:36;11.80;;;3.53;;
41059;SDS011;26811;53.160;8.202;2023-09-19T00:23:38;16.60;;;3.77;;
41059;SDS011;26811;53.160;8.202;2023-09-19T00:28:40;13.65;;;3.40;;
41059;SDS011;26811;53.160;8.202;2023-09-19T00:33:41;11.45;;;3.13;;
41059;SDS011;26811;53.160;8.202;2023-09-19T00:38:42;8.38;;;2.63;;
41059;SDS011;26811;53.160;8.202;2023-09-19T00:43:44;10.00;;;2.90;;
41059;SDS011;26811;53.160;8.202;2023-09-19T00:48:45;7.10;;;2.20;;
41059;SDS011;26811;53.160;8.202;2023-09-19T00:53:46;7.10;;;2.50;;
41059;SDS011;26811;53.160;8.202;2023-09-19T00:58:47;7.65;;;2.30;;
41059;SDS011;26811;53.160;8.202;2023-09-19T01:03:48;6.35;;;2.10;;
41059;SDS011;26811;53.160;8.202;2023-09-19T01:08:49;9.82;;;2.25;;
41059;SDS011;26811;53.160;8.202;2023-09-19T01:13:54;8.82;;;2.03;;
41059;SDS011;26811;53.160;8.202;2023-09-19T01:24:55;8.45;;;2.00;;
41059;SDS011;26811;53.160;8.202;2023-09-19T01:30:14;6.90;;;2.15;;
41059;SDS011;26811;53.160;8.202;2023-09-19T01:35:22;4.60;;;2.00;;
41059;SDS011;26811;53.160;8.202;2023-09-19T01:40:22;6.60;;;2.50;;
41059;SDS011;26811;53.160;8.202;2023-09-19T01:45:37;5.75;;;2.20;;
41059;SDS011;26811;53.160;8.202;2023-09-19T01:50:49;8.43;;;2.35;;
41059;SDS011;26811;53.160;8.202;2023-09-19T01:56:02;5.43;;;2.03;;
41059;SDS011;26811;53.160;8.202;2023-09-19T02:01:06;3.97;;;2.10;;
41059;SDS011;26811;53.160;8.202;2023-09-19T02:06:14;4.40;;;1.92;;
41059;SDS011;26811;53.160;8.202;2023-09-19T02:11:15;5.15;;;2.20;;
41059;SDS011;26811;53.160;8.202;2023-09-19T02:16:16;4.55;;;1.90;;
41059;SDS011;26811;53.160;8.202;2023-09-19T02:21:19;8.18;;;2.10;;
41059;SDS011;26811;53.160;8.202;2023-09-19T02:26:21;9.60;;;1.77;;
41059;SDS011;26811;53.160;8.202;2023-09-19T02:36:25;7.93;;;2.20;;
41059;SDS011;26811;53.160;8.202;2023-09-19T02:41:26;11.13;;;2.40;;
41059;SDS011;26811;53.160;8.202;2023-09-19T02:46:27;7.35;;;2.30;;
41059;SDS011;26811;53.160;8.202;2023-09-19T02:51:28;7.60;;;1.98;;
41059;SDS011;26811;53.160;8.202;2023-09-19T02:56:28;6.60;;;2.70;;
41059;SDS011;26811;53.160;8.202;2023-09-19T03:01:30;6.87;;;2.33;;
41059;SDS011;26811;53.160;8.202;2023-09-19T03:06:31;7.15;;;2.30;;
41059;SDS011;26811;53.160;8.202;2023-09-19T03:11:31;11.68;;;3.30;;
41059;SDS011;26811;53.160;8.202;2023-09-19T03:16:33;8.70;;;3.00;;
41059;SDS011;26811;53.160;8.202;2023-09-19T03:21:33;10.98;;;3.03;;
41059;SDS011;26811;53.160;8.202;2023-09-19T03:26:34;15.50;;;2.83;;
41059;SDS011;26811;53.160;8.202;2023-09-19T03:31:35;9.40;;;2.53;;
41059;SDS011;26811;53.160;8.202;2023-09-19T03:36:39;13.10;;;2.95;;
41059;SDS011;26811;53.160;8.202;2023-09-19T03:41:40;10.13;;;2.55;;
41059;SDS011;26811;53.160;8.202;2023-09-19T03:46:41;11.25;;;2.78;;
41059;SDS011;26811;53.160;8.202;2023-09-19T03:51:42;13.15;;;2.58;;
41059;SDS011;26811;53.160;8.202;2023-09-19T03:56:42;12.98;;;2.35;;
41059;SDS011;26811;53.160;8.202;2023-09-19T04:01:43;5.38;;;2.20;;
41059;SDS011;26811;53.160;8.202;2023-09-19T04:06:44;12.10;;;2.70;;
41059;SDS011;26811;53.160;8.202;2023-09-19T04:11:44;11.93;;;2.40;;
41059;SDS011;26811;53.160;8.202;2023-09-19T04:16:45;13.32;;;3.30;;
41059;SDS011;26811;53.160;8.202;2023-09-19T04:21:46;6.40;;;2.38;;
41059;SDS011;26811;53.160;8.202;2023-09-19T04:26:46;10.98;;;2.72;;
41059;SDS011;26811;53.160;8.202;2023-09-19T04:31:48;12.63;;;2.42;;
41059;SDS011;26811;53.160;8.202;2023-09-19T04:36:48;9.60;;;2.20;;
41059;SDS011;26811;53.160;8.202;2023-09-19T04:41:49;14.88;;;2.58;;
41059;SDS011;26811;53.160;8.202;2023-09-19T04:46:49;19.15;;;2.60;;
41059;SDS011;26811;53.160;8.202;2023-09-19T04:51:50;10.32;;;3.20;;
41059;SDS011;26811;53.160;8.202;2023-09-19T04:56:51;13.38;;;2.60;;
41059;SDS011;26811;53.160;8.202;2023-09-19T05:01:51;11.02;;;2.70;;
41059;SDS011;26811;53.160;8.202;2023-09-19T05:06:52;10.63;;;2.80;;
41059;SDS011;26811;53.160;8.202;2023-09-19T05:11:53;14.57;;;2.80;;
41059;SDS011;26811;53.160;8.202;2023-09-19T05:16:54;12.60;;;2.35;;
41059;SDS011;26811;53.160;8.202;2023-09-19T05:21:54;11.07;;;2.95;;
41059;SDS011;26811;53.160;8.202;2023-09-19T05:26:55;9.27;;;3.35;;
41059;SDS011;26811;53.160;8.202;2023-09-19T05:31:57;15.00;;;2.57;;
41059;SDS011;26811;53.160;8.202;2023-09-19T05:36:57;11.95;;;2.80;;
41059;SDS011;26811;53.160;8.202;2023-09-19T05:41:58;15.55;;;2.95;;
41059;SDS011;26811;53.160;8.202;2023-09-19T05:47:00;16.90;;;2.90;;
41059;SDS011;26811;53.160;8.202;2023-09-19T05:52:00;22.02;;;3.95;;
41059;SDS011;26811;53.160;8.202;2023-09-19T05:57:01;13.73;;;3.53;;
41059;SDS011;26811;53.160;8.202;2023-09-19T06:02:01;10.07;;;2.90;;
41059;SDS011;26811;53.160;8.202;2023-09-19T06:07:05;19.25;;;3.72;;
41059;SDS011;26811;53.160;8.202;2023-09-19T06:12:06;14.45;;;3.42;;
41059;SDS011;26811;53.160;8.202;2023-09-19T06:17:06;13.32;;;3.08;;
41059;SDS011;26811;53.160;8.202;2023-09-19T06:22:07;17.80;;;2.92;;
41059;SDS011;26811;53.160;8.202;2023-09-19T06:27:07;16.02;;;3.53;;
41059;SDS011;26811;53.160;8.202;2023-09-19T06:32:08;13.07;;;3.03;;
41059;SDS011;26811;53.160;8.202;2023-09-19T06:37:10;16.10;;;3.40;;
41059;SDS011;26811;53.160;8.202;2023-09-19T06:42:10;18.00;;;3.05;;
41059;SDS011;26811;53.160;8.202;2023-09-19T06:47:11;14.32;;;3.20;;
41059;SDS011;26811;53.160;8.202;2023-09-19T06:52:12;19.35;;;3.13;;
41059;SDS011;26811;53.160;8.202;2023-09-19T06:57:13;10.13;;;2.75;;
41059;SDS011;26811;53.160;8.202;2023-09-19T07:02:13;19.48;;;3.08;;
41059;SDS011;26811;53.160;8.202;2023-09-19T07:07:14;17.02;;;3.00;;
41059;SDS011;26811;53.160;8.202;2023-09-19T07:12:15;17.73;;;3.05;;
41059;SDS011;26811;53.160;8.202;2023-09-19T07:17:17;15.15;;;3.47;;
41059;SDS011;26811;53.160;8.202;2023-09-19T07:22:18;14.68;;;3.05;;
41059;SDS011;26811;53.160;8.202;2023-09-19T07:27:19;24.15;;;3.47;;
41059;SDS011;26811;53.160;8.202;2023-09-19T07:32:19;14.93;;;2.85;;
41059;SDS011;26811;53.160;8.202;2023-09-19T07:37:20;15.57;;;3.10;;
41059;SDS011;26811;53.160;8.202;2023-09-19T07:42:21;17.80;;;3.17;;
41059;SDS011;26811;53.160;8.202;2023-09-19T07:47:22;19.20;;;2.90;;
41059;SDS011;26811;53.160;8.202;2023-09-19T07:52:22;13.38;;;3.13;;
41059;SDS011;26811;53.160;8.202;2023-09-19T07:57:26;12.07;;;2.10;;
41059;SDS011;26811;53.160;8.202;2023-09-19T08:02:28;13.38;;;2.92;;
41059;SDS011;26811;53.160;8.202;2023-09-19T08:07:29;16.55;;;2.70;;
41059;SDS011;26811;53.160;8.202;2023-09-19T08:12:30;12.23;;;2.67;;
41059;SDS011;26811;53.160;8.202;2023-09-19T08:17:34;21.35;;;2.88;;
41059;SDS011;26811;53.160;8.202;2023-09-19T08:22:35;17.02;;;2.70;;
41059;SDS011;26811;53.160;8.202;2023-09-19T08:27:35;19.77;;;3.28;;
41059;SDS011;26811;53.160;8.202;2023-09-19T08:32:39;13.35;;;3.15;;
41059;SDS011;26811;53.160;8.202;2023-09-19T08:37:42;15.93;;;2.85;;
41059;SDS011;26811;53.160;8.202;2023-09-19T08:42:49;10.70;;;2.45;;
41059;SDS011;26811;53.160;8.202;2023-09-19T08:48:03;13.27;;;2.97;;
41059;SDS011;26811;53.160;8.202;2023-09-19T08:53:26;10.88;;;2.50;;
41059;SDS011;26811;53.160;8.202;2023-09-19T08:58:34;15.38;;;2.75;;
41059;SDS011;26811;53.160;8.202;2023-09-19T09:03:40;11.60;;;2.33;;
41059;SDS011;26811;53.160;8.202;2023-09-19T09:08:52;14.65;;;2.70;;
41059;SDS011;26811;53.160;8.202;2023-09-19T09:13:52;13.07;;;3.08;;
41059;SDS011;26811;53.160;8.202;2023-09-19T09:18:53;15.65;;;2.45;;
41059;SDS011;26811;53.160;8.202;2023-09-19T09:23:54;12.75;;;2.42;;
41059;SDS011;26811;53.160;8.202;2023-09-19T09:28:55;11.40;;;2.67;;
41059;SDS011;26811;53.160;8.202;2023-09-19T09:33:58;12.68;;;2.50;;
41059;SDS011;26811;53.160;8.202;2023-09-19T09:39:03;12.90;;;2.35;;
41059;SDS011;26811;53.160;8.202;2023-09-19T09:44:24;22.20;;;3.38;;
41059;SDS011;26811;53.160;8.202;2023-09-19T09:54:34;16.45;;;3.05;;
41059;SDS011;26811;53.160;8.202;2023-09-19T09:59:52;13.10;;;2.92;;
41059;SDS011;26811;53.160;8.202;2023-09-19T10:04:54;13.50;;;2.67;;
41059;SDS011;26811;53.160;8.202;2023-09-19T10:10:00;15.27;;;2.97;;
41059;SDS011;26811;53.160;8.202;2023-09-19T10:15:11;14.43;;;3.08;;
41059;SDS011;26811;53.160;8.202;2023-09-19T10:20:16;16.77;;;3.53;;
41059;SDS011;26811;53.160;8.202;2023-09-19T10:25:39;16.65;;;3.00;;
41059;SDS011;26811;53.160;8.202;2023-09-19T10:30:42;13.48;;;2.90;;
41059;SDS011;26811;53.160;8.202;2023-09-19T10:35:45;15.32;;;2.88;;
41059;SDS011;26811;53.160;8.202;2023-09-19T10:40:51;11.32;;;2.75;;
41059;SDS011;26811;53.160;8.202;2023-09-19T10:45:54;14.00;;;3.08;;
41059;SDS011;26811;53.160;8.202;2023-09-19T10:56:07;18.35;;;3.08;;
41059;SDS011;26811;53.160;8.202;2023-09-19T11:01:17;12.55;;;2.67;;
41059;SDS011;26811;53.160;8.202;2023-09-19T11:06:18;15.70;;;3.22;;
41059;SDS011;26811;53.160;8.202;2023-09-19T11:11:38;12.85;;;2.75;;
41059;SDS011;26811;53.160;8.202;2023-09-19T11:16:39;14.10;;;3.10;;
41059;SDS011;26811;53.160;8.202;2023-09-19T11:21:40;11.00;;;2.55;;
41059;SDS011;26811;53.160;8.202;2023-09-19T11:26:42;15.68;;;2.80;;
41059;SDS011;26811;53.160;8.202;2023-09-19T11:31:47;11.68;;;2.75;;
41059;SDS011;26811;53.160;8.202;2023-09-19T11:36:49;12.60;;;2.70;;
41059;SDS011;26811;53.160;8.202;2023-09-19T11:41:50;17.33;;;3.00;;
41059;SDS011;26811;53.160;8.202;2023-09-19T11:46:56;12.27;;;2.85;;
41059;SDS011;26811;53.160;8.202;2023-09-19T11:51:59;21.95;;;3.35;;
41059;SDS011;26811;53.160;8.202;2023-09-19T11:57:08;15.13;;;3.08;;
41059;SDS011;26811;53.160;8.202;2023-09-19T12:02:09;11.93;;;2.70;;
41059;SDS011;26811;53.160;8.202;2023-09-19T12:07:28;16.75;;;2.72;;
41059;SDS011;26811;53.160;8.202;2023-09-19T12:12:28;12.10;;;2.78;;
41059;SDS011;26811;53.160;8.202;2023-09-19T12:17:36;11.77;;;2.67;;
41059;SDS011;26811;53.160;8.202;2023-09-19T12:22:44;16.93;;;2.83;;
41059;SDS011;26811;53.160;8.202;2023-09-19T12:27:47;11.75;;;2.50;;
41059;SDS011;26811;53.160;8.202;2023-09-19T12:32:55;12.45;;;3.13;;
41059;SDS011;26811;53.160;8.202;2023-09-19T12:37:58;10.43;;;3.00;;
41059;SDS011;26811;53.160;8.202;2023-09-19T12:42:58;15.57;;;2.80;;
41059;SDS011;26811;53.160;8.202;2023-09-19T12:48:25;12.43;;;2.72;;
41059;SDS011;26811;53.160;8.202;2023-09-19T12:53:37;13.38;;;2.60;;
41059;SDS011;26811;53.160;8.202;2023-09-19T13:09:28;14.60;;;2.47;;
41059;SDS011;26811;53.160;8.202;2023-09-19T13:14:34;13.68;;;2.70;;
41059;SDS011;26811;53.160;8.202;2023-09-19T13:19:44;14.20;;;2.50;;
41059;SDS011;26811;53.160;8.202;2023-09-19T13:24:48;10.50;;;2.53;;
41059;SDS011;26811;53.160;8.202;2023-09-19T13:34:51;12.05;;;2.47;;
41059;SDS011;26811;53.160;8.202;2023-09-19T13:39:52;12.60;;;2.28;;
41059;SDS011;26811;53.160;8.202;2023-09-19T13:44:53;13.27;;;2.45;;
41059;SDS011;26811;53.160;8.202;2023-09-19T13:49:54;11.50;;;2.10;;
41059;SDS011;26811;53.160;8.202;2023-09-19T13:54:54;11.05;;;2.30;;
41059;SDS011;26811;53.160;8.202;2023-09-19T13:59:56;9.73;;;2.40;;
41059;SDS011;26811;53.160;8.202;2023-09-19T14:04:57;15.15;;;2.53;;
41059;SDS011;26811;53.160;8.202;2023-09-19T14:09:57;15.55;;;2.40;;
41059;SDS011;26811;53.160;8.202;2023-09-19T14:14:58;10.30;;;2.33;;
41059;SDS011;26811;53.160;8.202;2023-09-19T14:19:58;13.30;;;2.75;;
41059;SDS011;26811;53.160;8.202;2023-09-19T14:24:59;11.77;;;2.53;;
41059;SDS011;26811;53.160;8.202;2023-09-19T14:30:00;13.85;;;2.55;;
41059;SDS011;26811;53.160;8.202;2023-09-19T14:35:00;10.20;;;2.33;;
41059;SDS011;26811;53.160;8.202;2023-09-19T14:40:01;15.43;;;2.58;;
41059;SDS011;26811;53.160;8.202;2023-09-19T14:45:08;13.60;;;2.67;;
41059;SDS011;26811;53.160;8.202;2023-09-19T14:50:09;13.18;;;2.50;;
41059;SDS011;26811;53.160;8.202;2023-09-19T14:55:10;10.25;;;2.45;;
41059;SDS011;26811;53.160;8.202;2023-09-19T15:00:14;11.95;;;2.38;;
41059;SDS011;26811;53.160;8.202;2023-09-19T15:05:16;11.38;;;2.10;;
41059;SDS011;26811;53.160;8.202;2023-09-19T15:10:17;10.70;;;2.33;;
41059;SDS011;26811;53.160;8.202;2023-09-19T15:15:19;13.73;;;2.30;;
41059;SDS011;26811;53.160;8.202;2023-09-19T15:20:20;10.95;;;2.13;;
41059;SDS011;26811;53.160;8.202;2023-09-19T15:25:20;8.05;;;2.03;;
41059;SDS011;26811;53.160;8.202;2023-09-19T15:30:21;12.98;;;2.10;;
41059;SDS011;26811;53.160;8.202;2023-09-19T15:35:21;9.57;;;2.10;;
41059;SDS011;26811;53.160;8.202;2023-09-19T15:40:22;8.60;;;2.03;;
41059;SDS011;26811;53.160;8.202;2023-09-19T15:45:24;16.23;;;2.13;;
41059;SDS011;26811;53.160;8.202;2023-09-19T15:50:25;6.05;;;2.03;;
41059;SDS011;26811;53.160;8.202;2023-09-19T15:55:26;7.25;;;1.90;;
41059;SDS011;26811;53.160;8.202;2023-09-19T16:00:26;10.40;;;2.05;;
41059;SDS011;26811;53.160;8.202;2023-09-19T16:05:27;6.13;;;1.92;;
41059;SDS011;26811;53.160;8.202;2023-09-19T16:10:28;6.15;;;1.80;;
41059;SDS011;26811;53.160;8.202;2023-09-19T16:15:29;5.50;;;1.65;;
41059;SDS011;26811;53.160;8.202;2023-09-19T16:20:30;8.40;;;1.75;;
41059;SDS011;26811;53.160;8.202;2023-09-19T16:25:33;6.97;;;1.85;;
41059;SDS011;26811;53.160;8.202;2023-09-19T16:30:33;8.02;;;1.85;;
41059;SDS011;26811;53.160;8.202;2023-09-19T16:35:36;7.40;;;2.03;;
41059;SDS011;26811;53.160;8.202;2023-09-19T16:40:38;18.23;;;1.88;;
41059;SDS011;26811;53.160;8.202;2023-09-19T16:45:44;8.57;;;2.00;;
41059;SDS011;26811;53.160;8.202;2023-09-19T16:50:53;10.80;;;2.38;;
41059;SDS011;26811;53.160;8.202;2023-09-19T16:55:54;6.63;;;1.80;;
41059;SDS011;26811;53.160;8.202;2023-09-19T17:00:54;8.20;;;1.88;;
41059;SDS011;26811;53.160;8.202;2023-09-19T17:05:58;5.05;;;1.90;;
41059;SDS011;26811;53.160;8.202;2023-09-19T17:10:59;6.75;;;1.80;;
41059;SDS011;26811;53.160;8.202;2023-09-19T17:16:05;4.78;;;1.38;;
41059;SDS011;26811;53.160;8.202;2023-09-19T17:21:11;5.65;;;1.40;;
41059;SDS011;26811;53.160;8.202;2023-09-19T17:26:13;7.57;;;1.30;;
41059;SDS011;26811;53.160;8.202;2023-09-19T17:31:15;5.03;;;1.80;;
41059;SDS011;26811;53.160;8.202;2023-09-19T17:36:18;5.47;;;1.40;;
41059;SDS011;26811;53.160;8.202;2023-09-19T17:41:26;8.48;;;1.67;;
41059;SDS011;26811;53.160;8.202;2023-09-19T17:46:26;6.22;;;1.80;;
41059;SDS011;26811;53.160;8.202;2023-09-19T17:51:28;11.07;;;1.88;;
41059;SDS011;26811;53.160;8.202;2023-09-19T17:56:29;9.85;;;2.53;;
41059;SDS011;26811;53.160;8.202;2023-09-19T18:01:30;4.40;;;1.48;;
41059;SDS011;26811;53.160;8.202;2023-09-19T18:06:32;4.90;;;2.28;;
41059;SDS011;26811;53.160;8.202;2023-09-19T18:11:32;4.03;;;1.63;;
41059;SDS011;26811;53.160;8.202;2023-09-19T18:16:33;5.13;;;1.60;;
41059;SDS011;26811;53.160;8.202;2023-09-19T18:21:34;9.45;;;1.90;;
41059;SDS011;26811;53.160;8.202;2023-09-19T18:26:34;2.40;;;1.20;;
41059;SDS011;26811;53.160;8.202;2023-09-19T18:31:38;8.93;;;1.80;;
41059;SDS011;26811;53.160;8.202;2023-09-19T18:36:38;3.72;;;1.63;;
41059;SDS011;26811;53.160;8.202;2023-09-19T18:41:39;6.60;;;1.65;;
41059;SDS011;26811;53.160;8.202;2023-09-19T18:46:40;6.57;;;1.88;;
41059;SDS011;26811;53.160;8.202;2023-09-19T18:51:43;7.72;;;1.90;;
41059;SDS011;26811;53.160;8.202;2023-09-19T18:56:44;6.28;;;1.42;;
41059;SDS011;26811;53.160;8.202;2023-09-19T19:01:46;5.60;;;1.83;;
41059;SDS011;26811;53.160;8.202;2023-09-19T19:06:47;8.27;;;1.83;;
41059;SDS011;26811;53.160;8.202;2023-09-19T19:11:47;7.63;;;1.67;;
41059;SDS011;26811;53.160;8.202;2023-09-19T19:16:48;8.40;;;1.50;;
41059;SDS011;26811;53.160;8.202;2023-09-19T19:21:48;6.47;;;1.63;;
41059;SDS011;26811;53.160;8.202;2023-09-19T19:26:49;8.55;;;2.00;;
41059;SDS011;26811;53.160;8.202;2023-09-19T19:31:49;11.38;;;1.70;;
41059;SDS011;26811;53.160;8.202;2023-09-19T19:36:52;5.40;;;1.70;;
41059;SDS011;26811;53.160;8.202;2023-09-19T19:41:52;9.60;;;1.88;;
41059;SDS011;26811;53.160;8.202;2023-09-19T19:46:53;7.57;;;1.73;;
41059;SDS011;26811;53.160;8.202;2023-09-19T19:51:53;4.30;;;1.45;;
41059;SDS011;26811;53.160;8.202;2023-09-19T19:56:54;4.78;;;1.38;;
41059;SDS011;26811;53.160;8.202;2023-09-19T20:01:55;7.30;;;1.70;;
41059;SDS011;26811;53.160;8.202;2023-09-19T20:06:55;8.00;;;1.88;;
41059;SDS011;26811;53.160;8.202;2023-09-19T20:11:56;8.75;;;2.17;;
41059;SDS011;26811;53.160;8.202;2023-09-19T20:16:57;6.38;;;2.25;;
41059;SDS011;26811;53.160;8.202;2023-09-19T20:22:00;9.38;;;2.00;;
41059;SDS011;26811;53.160;8.202;2023-09-19T20:27:05;8.98;;;2.22;;
41059;SDS011;26811;53.160;8.202;2023-09-19T20:32:06;5.53;;;1.90;;
41059;SDS011;26811;53.160;8.202;2023-09-19T20:37:09;8.43;;;2.30;;
41059;SDS011;26811;53.160;8.202;2023-09-19T20:42:09;10.95;;;2.10;;
41059;SDS011;26811;53.160;8.202;2023-09-19T20:47:10;7.95;;;2.10;;
41059;SDS011;26811;53.160;8.202;2023-09-19T20:52:10;4.90;;;2.40;;
41059;SDS011;26811;53.160;8.202;2023-09-19T20:57:12;5.40;;;2.08;;
41059;SDS011;26811;53.160;8.202;2023-09-19T21:02:14;7.70;;;2.80;;
41059;SDS011;26811;53.160;8.202;2023-09-19T21:07:15;6.97;;;2.58;;
41059;SDS011;26811;53.160;8.202;2023-09-19T21:12:16;6.90;;;2.90;;
41059;SDS011;26811;53.160;8.202;2023-09-19T21:17:17;12.38;;;2.85;;
41059;SDS011;26811;53.160;8.202;2023-09-19T21:22:18;8.75;;;2.47;;
41059;SDS011;26811;53.160;8.202;2023-09-19T21:27:18;7.10;;;2.22;;
41059;SDS011;26811;53.160;8.202;2023-09-19T21:32:19;7.35;;;2.47;;
41059;SDS011;26811;53.160;8.202;2023-09-19T21:37:19;8.13;;;2.47;;
41059;SDS011;26811;53.160;8.202;2023-09-19T21:42:20;6.30;;;2.53;;
41059;SDS011;26811;53.160;8.202;2023-09-19T21:47:22;6.13;;;2.30;;
41059;SDS011;26811;53.160;8.202;2023-09-19T21:52:22;10.75;;;2.80;;
41059;SDS011;26811;53.160;8.202;2023-09-19T21:57:23;6.57;;;2.33;;
41059;SDS011;26811;53.160;8.202;2023-09-19T22:02:23;8.55;;;2.50;;
41059;SDS011;26811;53.160;8.202;2023-09-19T22:07:24;12.93;;;2.55;;
41059;SDS011;26811;53.160;8.202;2023-09-19T22:12:25;8.20;;;2.20;;
41059;SDS011;26811;53.160;8.202;2023-09-19T22:17:26;7.38;;;2.80;;
41059;SDS011;26811;53.160;8.202;2023-09-19T22:22:27;9.45;;;2.58;;
41059;SDS011;26811;53.160;8.202;2023-09-19T22:27:29;8.00;;;2.35;;
41059;SDS011;26811;53.160;8.202;2023-09-19T22:32:30;13.88;;;3.10;;
41059;SDS011;26811;53.160;8.202;2023-09-19T22:37:30;8.75;;;2.47;;
41059;SDS011;26811;53.160;8.202;2023-09-19T22:42:31;12.10;;;2.50;;
41059;SDS011;26811;53.160;8.202;2023-09-19T22:47:33;7.47;;;2.50;;
41059;SDS011;26811;53.160;8.202;2023-09-19T22:52:34;7.13;;;2.10;;
41059;SDS011;26811;53.160;8.202;2023-09-19T22:57:36;7.87;;;2.40;;
41059;SDS011;26811;53.160;8.202;2023-09-19T23:02:37;9.27;;;2.38;;
41059;SDS011;26811;53.160;8.202;2023-09-19T23:07:41;7.10;;;2.28;;
41059;SDS011;26811;53.160;8.202;2023-09-19T23:12:43;6.28;;;2.20;;
41059;SDS011;26811;53.160;8.202;2023-09-19T23:17:44;7.18;;;2.45;;
41059;SDS011;26811;53.160;8.202;2023-09-19T23:22:45;9.50;;;2.30;;
41059;SDS011;26811;53.160;8.202;2023-09-19T23:27:49;9.80;;;2.60;;
41059;SDS011;26811;53.160;8.202;2023-09-19T23:32:54;6.53;;;2.42;;
41059;SDS011;26811;53.160;8.202;2023-09-19T23:37:55;9.98;;;2.40;;
41059;SDS011;26811;53.160;8.202;2023-09-19T23:42:57;8.32;;;2.70;;
41059;SDS011;26811;53.160;8.202;2023-09-19T23:47:58;7.37;;;2.13;;
41059;SDS011;26811;53.160;8.202;2023-09-19T23:52:59;7.28;;;2.65;;
41059;SDS011;26811;53.160;8.202;2023-09-19T23:58:05;8.43;;;2.20;;
